This is the latest recevied weather packets stored in our database for station/object VK4NB-13. If no packets are shown the sender has not sent any weather packets the latest 10 day(s).
| Time | Temp. | Humidity | Pressure | Rain* | Wind** | Luminosity | Snow |
|---|---|---|---|---|---|---|---|
| 1778050224 | 24.44° C | 86% | 1014.3 hPa | 0 mm | - | - | - |
| 1778049004 | 24.44° C | 87% | 1013.9 hPa | 0 mm | - | - | - |
| 1778046603 | 24.44° C | 85% | 1013.8 hPa | 0 mm | - | - | - |
| 1778046303 | 25° C | 85% | 1013.9 hPa | 0 mm | - | - | - |
| 1778045404 | 25° C | 86% | 1013.6 hPa | 0 mm | - | - | - |
| 1778044524 | 25° C | 84% | 1013.8 hPa | 0 mm | - | - | - |
| 1778042403 | 26.11° C | 79% | 1013.8 hPa | 0 mm | - | - | - |
| 1778042103 | 26.67° C | 77% | 1013.8 hPa | 0 mm | - | - | - |
| 1778041804 | 26.11° C | 79% | 1013.9 hPa | 0 mm | - | - | - |
| 1778041503 | 26.67° C | 77% | 1014 hPa | 0 mm | - | - | - |
| 1778041224 | 26.11° C | 77% | 1013.8 hPa | 0 mm | - | - | - |
| 1778039724 | 25.56° C | 81% | 1014.1 hPa | 0 mm | - | - | - |
| 1778039103 | 25.56° C | 79% | 1014.3 hPa | 0 mm | - | - | - |
| 1778038503 | 26.11° C | 77% | 1014 hPa | 0 mm | - | - | - |
| 1778035803 | 25.56° C | 80% | 1014.7 hPa | 0 mm | - | - | - |
| 1778034903 | 26.11° C | 81% | 1014.9 hPa | 0 mm | - | - | - |
| 1778034604 | 26.11° C | 80% | 1015.2 hPa | 0 mm | - | - | - |
| 1778031900 | 26.11° C | 79% | 1015.5 hPa | 0 mm | - | - | - |
| 1778031621 | 26.11° C | 80% | 1015.6 hPa | 0 mm | - | - | - |
| 1778029522 | 25.56° C | 82% | 1015.8 hPa | 0 mm | - | - | - |
| 1778028901 | 25.56° C | 81% | 1016.1 hPa | 0 mm | - | - | - |
| 1778027401 | 25° C | 82% | 1016.3 hPa | 0 mm | - | - | - |
| 1778026801 | 25.56° C | 82% | 1016.3 hPa | 0 mm | - | - | - |
| 1778025301 | 25° C | 82% | 1016.2 hPa | 0 mm | - | - | - |
| 1778024422 | 25° C | 82% | 1016.5 hPa | 0 mm | - | - | - |
* Rain latest hour (hover to see other rain measurements)
** Current wind speed in m/s (hover to see current wind gust speed)